createdAt,value
2023-04-11T00:01:09.005Z,2.08
2023-04-11T00:03:40.511Z,2.08
2023-04-11T00:06:10.879Z,2.10
2023-04-11T00:08:40.887Z,2.15
2023-04-11T00:11:10.506Z,1.67
2023-04-11T00:13:40.634Z,2.02
2023-04-11T00:16:11.361Z,2.17
2023-04-11T00:18:42.651Z,1.95
2023-04-11T00:21:13.030Z,1.80
2023-04-11T00:23:43.151Z,2.27
2023-04-11T00:26:12.868Z,2.00
2023-04-11T00:28:43.396Z,2.25
2023-04-11T00:31:13.723Z,2.10
2023-04-11T00:33:44.241Z,2.15
2023-04-11T00:36:13.793Z,1.70
2023-04-11T00:38:44.884Z,2.20
2023-04-11T00:41:15.028Z,2.22
2023-04-11T00:43:44.918Z,2.17
2023-04-11T00:46:17.719Z,2.20
2023-04-11T00:48:48.210Z,1.92
2023-04-11T00:51:18.552Z,2.10
2023-04-11T00:53:49.078Z,1.70
2023-04-11T00:56:19.201Z,2.10
2023-04-11T00:58:49.111Z,2.25
2023-04-11T01:01:20.239Z,2.22
2023-04-11T01:03:51.160Z,2.27
2023-04-11T01:06:22.763Z,2.20
2023-04-11T01:08:53.138Z,2.30
2023-04-11T01:11:24.221Z,2.08
2023-04-11T01:13:55.159Z,2.10
2023-04-11T01:16:25.349Z,2.62
2023-04-11T01:18:55.780Z,2.20
2023-04-11T01:21:27.566Z,2.02
2023-04-11T01:23:58.915Z,2.70
2023-04-11T01:26:29.034Z,2.17
2023-04-11T01:28:59.153Z,2.40
2023-04-11T01:31:28.815Z,2.08
2023-04-11T01:33:58.587Z,2.02
2023-04-11T01:36:28.903Z,2.45
2023-04-11T01:38:58.813Z,2.17
2023-04-11T01:41:30.977Z,1.90
2023-04-11T01:44:01.911Z,2.25
2023-04-11T01:46:32.297Z,2.35
2023-04-11T01:49:02.423Z,2.25
2023-04-11T01:51:33.089Z,2.33
2023-04-11T01:54:03.007Z,2.27
2023-04-11T01:56:33.945Z,1.95
2023-04-11T01:59:04.677Z,2.08
2023-04-11T02:01:34.823Z,2.40
2023-04-11T02:04:04.587Z,2.22
2023-04-11T02:06:35.238Z,2.58
2023-04-11T02:09:05.385Z,2.10
2023-04-11T02:11:35.000Z,2.22
2023-04-11T02:14:06.624Z,2.30
2023-04-11T02:16:38.379Z,1.80
2023-04-11T02:19:08.090Z,2.20
2023-04-11T02:21:38.006Z,2.10
2023-04-11T02:25:44.993Z,2.20
2023-04-11T02:28:14.627Z,2.22
2023-04-11T02:30:44.934Z,2.50
2023-04-11T02:33:14.950Z,2.00
2023-04-11T02:35:45.191Z,2.17
2023-04-11T02:38:15.648Z,2.00
2023-04-11T02:40:46.118Z,1.77
2023-04-11T02:43:16.508Z,1.98
2023-04-11T02:45:46.318Z,2.08
2023-04-11T02:48:16.276Z,1.95
2023-04-11T02:50:47.012Z,1.70
2023-04-11T02:53:17.741Z,1.90
2023-04-11T02:55:49.495Z,1.75
2023-04-11T02:58:20.451Z,1.90
2023-04-11T03:00:51.576Z,2.00
2023-04-11T03:03:21.655Z,1.82
2023-04-11T03:05:52.023Z,1.90
2023-04-11T03:08:23.984Z,2.15
2023-04-11T03:10:54.820Z,1.62
2023-04-11T03:13:26.428Z,1.92
2023-04-11T03:15:56.840Z,1.67
2023-04-11T03:18:28.968Z,2.20
2023-04-11T03:20:59.308Z,2.00
2023-04-11T03:23:29.413Z,1.95
2023-04-11T03:26:00.762Z,2.15
2023-04-11T03:28:30.879Z,1.82
2023-04-11T03:31:01.033Z,2.15
2023-04-11T03:33:30.915Z,2.33
2023-04-11T03:36:01.158Z,1.85
2023-04-11T03:38:31.154Z,1.75
2023-04-11T03:41:01.274Z,2.08
2023-04-11T03:43:31.188Z,2.08
2023-04-11T03:46:01.723Z,2.08
2023-04-11T03:48:33.721Z,2.12
2023-04-11T03:51:06.472Z,1.65
2023-04-11T03:53:54.873Z,2.05
2023-04-11T03:56:29.445Z,1.70
2023-04-11T03:58:59.754Z,1.75
2023-04-11T04:01:32.601Z,1.77
2023-04-11T04:04:05.176Z,1.67
2023-04-11T04:06:37.488Z,1.67
2023-04-11T04:09:07.365Z,1.92
2023-04-11T04:11:38.745Z,2.27
2023-04-11T04:14:08.868Z,1.80
2023-04-11T04:16:39.629Z,1.70
2023-04-11T04:19:09.924Z,2.17
2023-04-11T04:21:40.453Z,2.17
2023-04-11T04:24:11.951Z,1.90
2023-04-11T04:27:02.365Z,2.00
2023-04-11T04:29:42.348Z,1.90
2023-04-11T04:32:15.336Z,3.00
2023-04-11T04:34:56.325Z,1.80
2023-04-11T04:37:28.270Z,2.10
2023-04-11T04:40:11.121Z,2.30
2023-04-11T04:42:43.485Z,2.42
2023-04-11T04:45:13.579Z,2.37
2023-04-11T04:47:44.337Z,2.05
2023-04-11T04:50:14.458Z,2.10
2023-04-11T04:52:44.140Z,1.65
2023-04-11T04:55:13.852Z,2.02
2023-04-11T04:57:44.585Z,2.02
2023-04-11T05:00:15.336Z,1.80
2023-04-11T05:02:47.594Z,1.87
2023-04-11T05:05:17.811Z,1.87
2023-04-11T05:07:48.955Z,2.10
2023-04-11T05:10:19.285Z,2.12
2023-04-11T05:12:50.625Z,2.00
2023-04-11T05:15:22.106Z,2.12
2023-04-11T05:17:52.962Z,1.92
2023-04-11T05:20:24.874Z,2.20
2023-04-11T05:23:07.724Z,2.05
2023-04-11T05:25:37.609Z,2.08
2023-04-11T05:28:08.343Z,2.15
2023-04-11T05:30:38.280Z,2.37
2023-04-11T05:33:08.396Z,2.55
2023-04-11T05:35:38.304Z,2.50
2023-04-11T05:38:10.029Z,2.20
2023-04-11T05:40:41.437Z,2.22
2023-04-11T05:43:13.221Z,2.05
2023-04-11T05:45:45.261Z,2.37
2023-04-11T05:48:19.779Z,2.33
2023-04-11T05:50:51.705Z,2.33
2023-04-11T05:53:21.579Z,2.40
2023-04-11T05:55:51.623Z,2.35
2023-04-11T05:58:21.551Z,2.40
2023-04-11T06:00:51.170Z,2.35
2023-04-11T06:03:21.825Z,2.05
2023-04-11T06:05:52.021Z,2.70
2023-04-11T06:08:22.104Z,2.73
2023-04-11T06:10:51.568Z,2.42
2023-04-11T06:13:21.546Z,2.52
2023-04-11T06:15:51.232Z,2.17
2023-04-11T06:18:21.617Z,2.58
2023-04-11T06:20:51.088Z,2.05
2023-04-11T06:23:20.580Z,2.47
2023-04-11T06:25:50.102Z,2.55
2023-04-11T06:28:19.673Z,2.50
2023-04-11T06:30:49.216Z,2.58
2023-04-11T06:33:18.933Z,2.62
2023-04-11T06:35:48.452Z,2.75
2023-04-11T06:38:17.914Z,2.50
2023-04-11T06:40:49.126Z,2.17
2023-04-11T06:43:18.590Z,2.37
2023-04-11T06:45:50.035Z,2.60
2023-04-11T06:48:20.983Z,2.02
2023-04-11T06:50:50.846Z,2.00
2023-04-11T06:53:20.314Z,2.10
2023-04-11T06:55:50.623Z,2.08
2023-04-11T06:58:20.079Z,2.42
2023-04-11T07:00:49.556Z,2.37
2023-04-11T07:03:20.275Z,2.00
2023-04-11T07:05:50.908Z,2.22
2023-04-11T07:08:21.316Z,2.30
2023-04-11T07:10:50.796Z,2.70
2023-04-11T07:13:21.761Z,2.30
2023-04-11T07:15:51.287Z,2.25
2023-04-11T07:18:21.453Z,2.80
2023-04-11T07:20:52.811Z,2.60
2023-04-11T07:23:23.672Z,2.60
2023-04-11T07:25:54.668Z,2.10
2023-04-11T07:28:25.741Z,2.70
2023-04-11T07:30:55.433Z,2.33
2023-04-11T07:33:25.737Z,2.87
2023-04-11T07:35:55.256Z,2.50
2023-04-11T07:38:29.916Z,3.07
2023-04-11T07:41:02.092Z,2.80
2023-04-11T07:43:32.109Z,2.87
2023-04-11T07:46:01.748Z,2.60
2023-04-11T07:48:33.471Z,3.17
2023-04-11T07:51:03.216Z,2.77
2023-04-11T07:53:35.189Z,2.98
2023-04-11T07:56:05.209Z,2.42
2023-04-11T07:58:34.652Z,2.70
2023-04-11T08:01:07.323Z,2.58
2023-04-11T08:03:36.923Z,2.52
2023-04-11T08:06:08.025Z,3.00
2023-04-11T08:08:37.482Z,2.58
2023-04-11T08:11:07.195Z,2.58
2023-04-11T08:13:36.780Z,2.40
2023-04-11T08:16:11.938Z,2.42
2023-04-11T08:18:42.753Z,2.20
2023-04-11T08:21:13.147Z,2.55
2023-04-11T08:23:42.945Z,2.50
2023-04-11T08:26:13.361Z,2.25
2023-04-11T08:28:43.650Z,2.05
2023-04-11T08:31:13.747Z,2.60
2023-04-11T08:33:43.575Z,2.20
2023-04-11T08:36:13.436Z,2.12
2023-04-11T08:38:43.080Z,2.33
2023-04-11T08:41:14.703Z,2.62
2023-04-11T08:43:46.277Z,2.60
2023-04-11T08:46:17.516Z,2.35
2023-04-11T08:48:47.197Z,2.77
2023-04-11T08:51:27.031Z,2.17
2023-04-11T08:54:00.140Z,1.90
2023-04-11T08:56:29.697Z,2.77
2023-04-11T08:58:59.247Z,2.22
2023-04-11T09:01:34.200Z,2.70
2023-04-11T09:04:05.973Z,2.67
2023-04-11T09:06:35.850Z,2.37
2023-04-11T09:09:06.772Z,4.90
2023-04-11T09:11:53.652Z,2.60
2023-04-11T09:14:28.007Z,2.17
2023-04-11T09:17:03.219Z,2.62
2023-04-11T09:19:38.140Z,2.47
2023-04-11T09:22:08.887Z,1.98
2023-04-11T09:24:39.987Z,3.45
2023-04-11T09:27:15.698Z,2.87
2023-04-11T09:29:47.897Z,2.00
2023-04-11T09:32:34.615Z,2.23
2023-04-11T09:35:16.429Z,2.25
2023-04-11T09:37:48.807Z,2.02
2023-04-11T09:40:20.563Z,2.30
2023-04-11T09:42:52.692Z,1.80
2023-04-11T09:45:24.077Z,1.83
2023-04-11T09:47:56.966Z,1.80
2023-04-11T09:52:59.097Z,1.67
2023-04-11T09:55:28.573Z,1.62
2023-04-11T09:57:58.056Z,1.77
2023-04-11T10:00:32.842Z,1.75
2023-04-11T10:03:03.566Z,2.17
2023-04-11T10:05:34.250Z,1.63
2023-04-11T10:08:07.060Z,2.35
2023-04-11T10:10:37.806Z,2.10
2023-04-11T10:13:26.808Z,1.95
2023-04-11T10:16:11.569Z,1.60
2023-04-11T10:18:53.137Z,2.20
2023-04-11T10:21:36.565Z,1.87
2023-04-11T10:24:22.345Z,1.72
2023-04-11T10:27:07.772Z,1.50
2023-04-11T10:29:51.655Z,2.70
2023-04-11T10:32:23.499Z,2.20
2023-04-11T10:34:59.054Z,1.70
2023-04-11T10:37:34.477Z,2.00
2023-04-11T10:40:12.616Z,1.72
2023-04-11T10:42:47.099Z,1.50
2023-04-11T10:45:19.687Z,4.90
2023-04-11T10:48:01.851Z,1.70
2023-04-11T10:50:41.964Z,1.70
2023-04-11T10:53:33.083Z,1.62
2023-04-11T10:56:02.616Z,1.75
2023-04-11T10:58:39.609Z,1.45
2023-04-11T11:01:26.437Z,1.70
2023-04-11T11:03:56.923Z,1.77
2023-04-11T11:06:29.883Z,1.57
2023-04-11T11:09:00.562Z,1.65
2023-04-11T11:11:30.067Z,1.80
2023-04-11T11:14:01.250Z,1.55
2023-04-11T11:16:30.906Z,1.40
2023-04-11T11:19:02.237Z,1.30
2023-04-11T11:21:35.289Z,1.40
2023-04-11T11:24:05.936Z,1.27
2023-04-11T11:26:43.473Z,1.23
2023-04-11T11:29:14.361Z,1.50
2023-04-11T11:31:47.956Z,1.30
2023-04-11T11:34:23.304Z,1.55
2023-04-11T11:36:54.091Z,2.08
2023-04-11T11:39:24.475Z,1.95
2023-04-11T11:41:54.074Z,1.60
2023-04-11T11:44:31.275Z,1.40
2023-04-11T11:47:06.081Z,1.37
2023-04-11T11:49:47.268Z,1.57
2023-04-11T11:52:36.572Z,1.12
2023-04-11T11:55:11.368Z,1.32
2023-04-11T11:57:48.970Z,1.42
2023-04-11T12:00:29.227Z,1.72
2023-04-11T12:03:00.865Z,1.87
2023-04-11T12:05:32.957Z,1.35
2023-04-11T12:08:07.098Z,1.52
2023-04-11T12:10:46.024Z,1.70
2023-04-11T12:13:25.526Z,1.52
2023-04-11T12:16:00.442Z,1.60
2023-04-11T12:18:30.070Z,1.42
2023-04-11T12:20:59.836Z,1.30
2023-04-11T12:23:30.037Z,1.65
2023-04-11T12:26:00.131Z,1.20
2023-04-11T12:28:29.598Z,1.27
2023-04-11T12:30:59.168Z,1.50
2023-04-11T12:33:28.684Z,1.77
2023-04-11T12:35:58.165Z,1.45
2023-04-11T12:38:27.821Z,1.95
2023-04-11T12:41:19.613Z,1.10
2023-04-11T12:43:28.718Z,1.67
2023-04-11T12:45:58.206Z,1.27
2023-04-11T12:48:27.753Z,1.55
2023-04-11T12:50:57.446Z,1.77
2023-04-11T12:53:26.917Z,1.98
2023-04-11T12:55:56.595Z,1.55
2023-04-11T12:58:28.489Z,1.35
2023-04-11T13:00:59.621Z,1.67
2023-04-11T13:03:29.516Z,1.42
2023-04-11T13:05:59.882Z,1.50
2023-04-11T13:08:29.348Z,1.57
2023-04-11T13:10:58.991Z,1.52
2023-04-11T13:13:28.604Z,1.37
2023-04-11T13:15:58.096Z,1.60
2023-04-11T13:18:27.809Z,1.70
2023-04-11T13:20:57.288Z,1.40
2023-04-11T13:23:26.832Z,1.37
2023-04-11T13:25:56.607Z,1.70
2023-04-11T13:28:26.150Z,1.50
2023-04-11T13:30:57.225Z,1.50
2023-04-11T13:33:27.840Z,1.50
2023-04-11T13:35:58.461Z,1.40
2023-04-11T13:38:28.398Z,1.27
2023-04-11T13:40:57.884Z,1.42
2023-04-11T13:43:29.289Z,2.10
2023-04-11T13:45:58.798Z,1.50
2023-04-11T13:48:28.335Z,1.85
2023-04-11T13:50:57.935Z,1.37
2023-04-11T13:53:27.978Z,1.20
2023-04-11T13:55:57.781Z,1.60
2023-04-11T13:58:46.331Z,1.37
2023-04-11T14:01:16.111Z,1.25
2023-04-11T14:03:45.778Z,1.47
2023-04-11T14:06:15.666Z,1.87
2023-04-11T14:08:45.135Z,1.30
2023-04-11T14:11:14.676Z,1.40
2023-04-11T14:13:45.227Z,1.60
2023-04-11T14:16:14.876Z,1.70
2023-04-11T14:18:44.720Z,1.82
2023-04-11T14:21:14.766Z,1.67
2023-04-11T14:23:44.389Z,1.50
2023-04-11T14:26:14.911Z,1.47
2023-04-11T14:28:44.541Z,1.55
2023-04-11T14:31:14.230Z,1.65
2023-04-11T14:33:43.786Z,1.25
2023-04-11T14:36:13.990Z,1.60
2023-04-11T14:38:43.624Z,1.72
2023-04-11T14:41:13.154Z,1.17
2023-04-11T14:43:42.752Z,1.62
2023-04-11T14:46:13.175Z,1.35
2023-04-11T14:48:43.171Z,1.65
2023-04-11T14:51:12.629Z,1.40
2023-04-11T14:53:43.598Z,1.75
2023-04-11T14:56:13.066Z,1.57
2023-04-11T14:58:43.230Z,1.75
2023-04-11T15:01:12.724Z,1.60
2023-04-11T15:03:42.378Z,1.55
2023-04-11T15:06:14.820Z,1.55
2023-04-11T15:08:44.302Z,1.62
2023-04-11T15:11:13.838Z,1.40
2023-04-11T15:13:45.234Z,1.50
2023-04-11T15:16:16.280Z,2.10
2023-04-11T15:18:46.735Z,1.72
2023-04-11T15:21:23.949Z,1.87
2023-04-11T15:23:53.878Z,1.57
2023-04-11T15:26:24.287Z,1.47
2023-04-11T15:28:53.856Z,1.80
2023-04-11T15:31:32.205Z,1.75
2023-04-11T15:34:03.746Z,1.50
2023-04-11T15:36:34.503Z,1.45
2023-04-11T15:39:06.004Z,1.35
2023-04-11T15:41:36.417Z,1.55
2023-04-11T15:44:05.966Z,1.98
2023-04-11T15:46:35.793Z,1.80
2023-04-11T15:49:06.157Z,1.80
2023-04-11T15:51:35.999Z,1.40
2023-04-11T15:54:05.808Z,1.80
2023-04-11T15:56:35.295Z,1.60
2023-04-11T15:59:05.279Z,1.60
2023-04-11T16:01:36.363Z,1.42
2023-04-11T16:04:06.813Z,1.80
2023-04-11T16:06:36.616Z,1.70
2023-04-11T16:09:06.247Z,1.53
2023-04-11T16:11:37.359Z,1.60
2023-04-11T16:14:08.158Z,1.22
2023-04-11T16:16:38.151Z,1.85
2023-04-11T16:19:08.548Z,1.52
2023-04-11T16:21:39.010Z,1.85
2023-04-11T16:24:09.402Z,1.62
2023-04-11T16:26:40.022Z,1.47
2023-04-11T16:29:10.031Z,1.67
2023-04-11T16:31:40.124Z,1.67
2023-04-11T16:34:09.711Z,1.72
2023-04-11T16:36:39.451Z,1.47
2023-04-11T16:39:08.926Z,1.90
2023-04-11T16:41:38.711Z,1.47
2023-04-11T16:44:11.039Z,1.57
2023-04-11T16:49:12.453Z,1.40
2023-04-11T16:51:44.279Z,1.67
2023-04-11T16:54:13.932Z,1.40
2023-04-11T16:56:43.588Z,1.80
2023-04-11T16:59:13.047Z,1.40
2023-04-11T17:01:45.832Z,1.60
2023-04-11T17:04:15.709Z,1.77
2023-04-11T17:06:46.430Z,1.72
2023-04-11T17:09:16.110Z,1.50
2023-04-11T17:11:45.585Z,1.35
2023-04-11T17:14:15.072Z,1.40
2023-04-11T17:16:46.622Z,1.55
2023-04-11T17:19:16.244Z,1.55
2023-04-11T17:21:45.692Z,1.57
2023-04-11T17:24:16.209Z,1.75
2023-04-11T17:26:45.677Z,1.50
2023-04-11T17:29:15.587Z,1.87
2023-04-11T17:31:47.183Z,1.72
2023-04-11T17:34:16.640Z,2.02
2023-04-11T17:36:46.121Z,1.80
2023-04-11T17:39:18.890Z,1.57
2023-04-11T17:41:48.456Z,1.67
2023-04-11T17:44:18.056Z,1.52
2023-04-11T17:46:48.112Z,1.35
2023-04-11T17:49:17.614Z,1.95
2023-04-11T17:51:58.131Z,1.65
2023-04-11T17:54:18.439Z,2.20
2023-04-11T17:56:48.128Z,13.72
2023-04-11T17:59:17.929Z,13.65
2023-04-11T18:01:47.491Z,6.62
2023-04-11T18:04:18.756Z,2.30
2023-04-11T18:06:48.321Z,1.82
2023-04-11T18:09:17.792Z,2.10
2023-04-11T18:11:47.490Z,1.70
2023-04-11T18:14:17.707Z,1.50
2023-04-11T18:16:49.899Z,1.47
2023-04-11T18:19:20.426Z,2.08
2023-04-11T18:21:50.693Z,1.60
2023-04-11T18:24:20.348Z,1.90
2023-04-11T18:26:49.904Z,2.00
2023-04-11T18:29:19.356Z,1.80
2023-04-11T18:31:49.364Z,2.02
2023-04-11T18:34:19.357Z,2.27
2023-04-11T18:36:49.569Z,2.50
2023-04-11T18:39:19.765Z,2.30
2023-04-11T18:41:52.320Z,1.92
2023-04-11T18:44:22.236Z,1.85
2023-04-11T18:46:54.099Z,2.27
2023-04-11T18:49:24.811Z,2.37
2023-04-11T18:51:54.833Z,2.22
2023-04-11T18:54:25.368Z,2.17
2023-04-11T18:56:56.210Z,2.20
2023-04-11T18:59:29.093Z,5.10
2023-04-11T19:01:58.138Z,2.03
2023-04-11T19:04:28.342Z,2.65
2023-04-11T19:06:59.235Z,3.15
2023-04-11T19:09:30.512Z,2.42
2023-04-11T19:12:00.024Z,4.62
2023-04-11T19:14:29.564Z,9.08
2023-04-11T19:16:59.236Z,26.02
2023-04-11T19:19:30.052Z,27.65
2023-04-11T19:21:59.720Z,12.43
2023-04-11T19:24:30.359Z,11.68
2023-04-11T19:26:59.985Z,10.82
2023-04-11T19:29:29.476Z,9.13
2023-04-11T19:32:00.672Z,10.30
2023-04-11T19:34:31.911Z,15.93
2023-04-11T19:37:01.389Z,19.98
2023-04-11T19:39:33.240Z,15.63
2023-04-11T19:42:04.867Z,12.40
2023-04-11T19:44:35.127Z,9.65
2023-04-11T19:47:04.673Z,14.30
2023-04-11T19:49:35.358Z,13.83
2023-04-11T19:52:05.284Z,13.03
2023-04-11T19:54:34.843Z,15.83
2023-04-11T19:57:04.595Z,14.67
2023-04-11T19:59:34.086Z,12.95
2023-04-11T20:02:03.731Z,12.88
2023-04-11T20:04:33.630Z,14.73
2023-04-11T20:07:04.253Z,13.07
2023-04-11T20:09:34.026Z,14.43
2023-04-11T20:12:05.902Z,16.67
2023-04-11T20:14:37.785Z,4.42
2023-04-11T20:17:09.483Z,4.00
2023-04-11T20:19:42.321Z,3.85
2023-04-11T20:22:13.885Z,4.27
2023-04-11T20:24:43.992Z,4.50
2023-04-11T20:27:14.753Z,4.83
2023-04-11T20:29:46.610Z,5.30
2023-04-11T20:32:17.151Z,4.33
2023-04-11T20:34:47.234Z,4.40
2023-04-11T20:37:18.810Z,4.72
2023-04-11T20:39:47.848Z,4.03
2023-04-11T20:42:18.396Z,4.42
2023-04-11T20:44:48.182Z,4.62
2023-04-11T20:47:17.661Z,7.30
2023-04-11T20:49:48.918Z,8.35
2023-04-11T20:52:18.769Z,9.50
2023-04-11T20:54:48.390Z,9.43
2023-04-11T20:57:17.951Z,8.70
2023-04-11T20:59:47.803Z,8.93
2023-04-11T21:02:17.976Z,8.18
2023-04-11T21:04:49.565Z,6.83
2023-04-11T21:07:20.294Z,6.75
2023-04-11T21:09:51.036Z,5.42
2023-04-11T21:12:20.589Z,5.65
2023-04-11T21:14:50.119Z,4.60
2023-04-11T21:17:20.598Z,4.75
2023-04-11T21:19:50.090Z,4.45
2023-04-11T21:22:20.524Z,4.62
2023-04-11T21:24:50.001Z,4.50
2023-04-11T21:27:19.498Z,4.90
2023-04-11T21:29:49.174Z,4.90
2023-04-11T21:32:18.655Z,5.05
2023-04-11T21:34:48.807Z,4.95
2023-04-11T21:37:19.129Z,5.05
2023-04-11T21:39:48.616Z,4.90
2023-04-11T21:42:18.076Z,5.20
2023-04-11T21:44:47.593Z,4.90
2023-04-11T21:47:19.389Z,4.83
2023-04-11T21:49:50.506Z,4.43
2023-04-11T21:52:20.220Z,5.00
2023-04-11T21:54:50.131Z,5.25
2023-04-11T21:57:21.072Z,4.45
2023-04-11T21:59:51.160Z,5.35
2023-04-11T22:02:22.099Z,4.95
2023-04-11T22:05:05.868Z,4.75
2023-04-11T22:07:25.445Z,5.78
2023-04-11T22:09:57.266Z,5.10
2023-04-11T22:12:28.530Z,5.60
2023-04-11T22:14:57.997Z,5.47
2023-04-11T22:17:29.364Z,6.00
2023-04-11T22:19:59.692Z,6.40
2023-04-11T22:22:31.660Z,6.73
2023-04-11T22:25:01.209Z,5.85
2023-04-11T22:27:32.471Z,5.62
2023-04-11T22:30:02.584Z,5.25
2023-04-11T22:32:33.781Z,5.35
2023-04-11T22:35:05.081Z,4.33
2023-04-11T22:37:34.845Z,4.20
2023-04-11T22:40:06.832Z,4.10
2023-04-11T22:42:37.763Z,9.57
2023-04-11T22:45:09.070Z,9.70
2023-04-11T22:47:40.478Z,7.10
2023-04-11T22:50:11.392Z,6.35
2023-04-11T22:52:42.741Z,6.00
2023-04-11T22:55:15.727Z,6.25
2023-04-11T22:57:45.328Z,7.00
2023-04-11T23:00:16.495Z,5.10
2023-04-11T23:02:47.693Z,5.30
2023-04-11T23:05:17.322Z,4.47
2023-04-11T23:07:47.348Z,4.08
2023-04-11T23:10:17.392Z,4.12
2023-04-11T23:12:47.445Z,4.97
2023-04-11T23:15:17.679Z,6.53
2023-04-11T23:17:48.067Z,5.03
2023-04-11T23:20:17.802Z,5.20
2023-04-11T23:22:47.360Z,4.85
2023-04-11T23:25:18.167Z,4.83
2023-04-11T23:27:47.751Z,4.47
2023-04-11T23:30:17.515Z,4.75
2023-04-11T23:32:48.960Z,5.25
2023-04-11T23:35:20.014Z,4.50
2023-04-11T23:37:50.269Z,4.70
2023-04-11T23:40:19.857Z,4.58
2023-04-11T23:42:49.364Z,4.97
2023-04-11T23:45:20.558Z,5.05
2023-04-11T23:47:51.166Z,4.95
2023-04-11T23:50:20.750Z,4.53
2023-04-11T23:52:50.319Z,4.65
2023-04-11T23:55:21.514Z,4.78
2023-04-11T23:57:53.438Z,4.80
